createdAt,value
2023-05-13T00:01:50.002Z,94805.94
2023-05-13T00:04:58.308Z,94800.38
2023-05-13T00:08:08.069Z,94809.41
2023-05-13T00:11:16.243Z,94800.59
2023-05-13T00:14:24.521Z,94799.56
2023-05-13T00:17:32.782Z,94805.88
2023-05-13T00:20:41.565Z,94804.00
2023-05-13T00:23:51.077Z,94802.59
2023-05-13T00:26:59.468Z,94805.66
2023-05-13T00:30:09.770Z,94806.25
2023-05-13T00:33:18.077Z,94800.56
2023-05-13T00:36:27.474Z,94807.91
2023-05-13T00:39:37.372Z,94805.25
2023-05-13T00:42:46.333Z,94803.59
2023-05-13T00:45:54.789Z,94813.03
2023-05-13T00:49:06.628Z,94802.59
2023-05-13T00:52:15.131Z,94804.06
2023-05-13T00:55:25.463Z,94811.03
2023-05-13T00:58:34.052Z,94812.63
2023-05-13T01:02:05.356Z,94813.25
2023-05-13T01:05:27.938Z,94822.06
2023-05-13T01:08:45.236Z,94812.19
2023-05-13T01:11:58.089Z,94817.91
2023-05-13T01:15:11.171Z,94808.50
2023-05-13T01:18:26.372Z,94805.22
2023-05-13T01:21:39.983Z,94809.50
2023-05-13T01:24:48.317Z,94814.19
2023-05-13T01:27:57.280Z,94804.41
2023-05-13T01:31:10.855Z,94808.06
2023-05-13T01:34:22.093Z,94806.66
2023-05-13T01:37:32.579Z,94813.00
2023-05-13T01:40:42.838Z,94810.16
2023-05-13T01:43:51.479Z,94815.50
2023-05-13T01:47:00.038Z,94814.06
2023-05-13T01:50:10.163Z,94815.50
2023-05-13T01:53:20.363Z,94817.50
2023-05-13T01:56:31.250Z,94813.00
2023-05-13T01:59:39.850Z,94814.19
2023-05-13T02:02:48.199Z,94817.03
2023-05-13T02:05:56.517Z,94811.50
2023-05-13T02:09:06.831Z,94817.03
2023-05-13T02:12:15.073Z,94818.69
2023-05-13T02:15:23.298Z,94822.94
2023-05-13T02:18:31.653Z,94817.66
2023-05-13T02:21:40.666Z,94817.50
2023-05-13T02:24:50.458Z,94816.28
2023-05-13T02:27:59.669Z,94811.81
2023-05-13T02:34:28.327Z,94827.38
2023-05-13T02:37:36.466Z,94819.00
2023-05-13T02:40:48.251Z,94820.38
2023-05-13T02:43:58.876Z,94813.88
2023-05-13T02:47:07.781Z,94811.81
2023-05-13T02:50:16.307Z,94810.09
2023-05-13T02:53:25.973Z,94811.34
2023-05-13T02:56:39.234Z,94811.34
2023-05-13T02:59:47.584Z,94801.09
2023-05-13T03:02:56.336Z,94808.06
2023-05-13T03:06:05.028Z,94808.47
2023-05-13T03:09:13.244Z,94810.47
2023-05-13T03:12:23.098Z,94808.78
2023-05-13T03:15:31.775Z,94818.63
2023-05-13T03:18:40.213Z,94811.22
2023-05-13T03:21:48.718Z,94817.00
2023-05-13T03:24:58.310Z,94814.13
2023-05-13T03:28:13.417Z,94814.13
2023-05-13T03:31:25.030Z,94823.09
2023-05-13T03:34:36.212Z,94824.56
2023-05-13T03:37:45.214Z,94828.78
2023-05-13T03:40:55.543Z,94825.94
2023-05-13T03:44:05.482Z,94827.22
2023-05-13T03:47:14.406Z,94826.59
2023-05-13T03:50:22.837Z,94832.91
2023-05-13T03:53:32.948Z,94830.78
2023-05-13T03:56:41.226Z,94835.91
2023-05-13T03:59:51.016Z,94832.28
2023-05-13T04:03:00.428Z,94847.78
2023-05-13T04:06:09.088Z,94842.25
2023-05-13T04:09:17.810Z,94842.72
2023-05-13T04:12:25.880Z,94845.13
2023-05-13T04:15:35.336Z,94849.25
2023-05-13T04:18:43.479Z,94846.41
2023-05-13T04:21:51.914Z,94855.00
2023-05-13T04:25:00.061Z,94858.88
2023-05-13T04:28:08.276Z,94854.53
2023-05-13T04:31:22.508Z,94864.63
2023-05-13T04:34:30.863Z,94856.22
2023-05-13T04:37:39.664Z,94869.75
2023-05-13T04:40:50.605Z,94865.69
2023-05-13T04:44:06.293Z,94868.38
2023-05-13T04:47:16.862Z,94867.16
2023-05-13T04:50:26.089Z,94866.97
2023-05-13T04:53:36.023Z,94868.22
2023-05-13T04:56:46.653Z,94878.47
2023-05-13T04:59:55.239Z,94883.00
2023-05-13T05:03:04.977Z,94882.13
2023-05-13T05:06:13.804Z,94882.97
2023-05-13T05:09:23.062Z,94879.66
2023-05-13T05:12:33.398Z,94882.13
2023-05-13T05:15:41.710Z,94886.97
2023-05-13T05:18:51.970Z,94887.13
2023-05-13T05:22:01.018Z,94894.06
2023-05-13T05:25:11.658Z,94900.56
2023-05-13T05:28:20.209Z,94901.88
2023-05-13T05:31:28.647Z,94895.84
2023-05-13T05:34:40.991Z,94904.47
2023-05-13T05:37:50.948Z,94906.00
2023-05-13T05:40:59.378Z,94909.97
2023-05-13T05:44:09.133Z,94911.19
2023-05-13T05:47:17.936Z,94912.41
2023-05-13T05:50:29.432Z,94920.13
2023-05-13T05:53:40.909Z,94912.00
2023-05-13T05:56:50.069Z,94901.72
2023-05-13T05:59:58.345Z,94913.53
2023-05-13T06:03:06.718Z,94911.94
2023-05-13T06:06:16.944Z,94911.09
2023-05-13T06:09:26.060Z,94910.72
2023-05-13T06:12:35.273Z,94913.75
2023-05-13T06:15:43.644Z,94917.63
2023-05-13T06:18:53.448Z,94917.84
2023-05-13T06:22:04.279Z,94911.63
2023-05-13T06:25:12.778Z,94916.00
2023-05-13T06:28:22.632Z,94923.53
2023-05-13T06:31:32.167Z,94919.88
2023-05-13T06:34:42.420Z,94920.75
2023-05-13T06:37:52.070Z,94922.84
2023-05-13T06:41:00.991Z,94924.91
2023-05-13T06:44:16.021Z,94920.41
2023-05-13T06:47:27.440Z,94916.03
2023-05-13T06:50:35.896Z,94923.66
2023-05-13T06:53:45.352Z,94919.13
2023-05-13T06:56:53.619Z,94926.53
2023-05-13T07:00:02.797Z,94927.72
2023-05-13T07:03:10.927Z,94922.47
2023-05-13T07:06:19.084Z,94926.66
2023-05-13T07:09:28.603Z,94925.78
2023-05-13T07:12:37.018Z,94934.47
2023-05-13T07:15:45.707Z,94933.84
2023-05-13T07:18:54.211Z,94932.00
2023-05-13T07:22:02.683Z,94932.66
2023-05-13T07:25:12.584Z,94943.00
2023-05-13T07:28:21.029Z,94938.50
2023-05-13T07:31:30.480Z,94942.91
2023-05-13T07:34:38.918Z,94941.19
2023-05-13T07:37:47.525Z,94942.69
2023-05-13T07:40:57.114Z,94941.75
2023-05-13T07:44:05.944Z,94943.13
2023-05-13T07:47:14.738Z,94945.19
2023-05-13T07:50:22.960Z,94946.81
2023-05-13T07:53:31.567Z,94943.16
2023-05-13T07:56:44.488Z,94951.59
2023-05-13T07:59:54.264Z,94947.31
2023-05-13T08:03:05.445Z,94952.03
2023-05-13T08:06:14.649Z,94946.53
2023-05-13T08:09:23.330Z,94948.16
2023-05-13T08:12:33.611Z,94952.13
2023-05-13T08:15:43.268Z,94953.28
2023-05-13T08:18:52.140Z,94947.91
2023-05-13T08:22:01.073Z,94951.31
2023-05-13T08:25:11.561Z,94956.84
2023-05-13T08:28:22.071Z,94949.69
2023-05-13T08:31:32.487Z,94954.38
2023-05-13T08:34:41.279Z,94955.00
2023-05-13T08:37:49.984Z,94950.00
2023-05-13T08:40:58.585Z,94954.09
2023-05-13T08:44:13.399Z,94948.59
2023-05-13T08:47:38.438Z,94953.41
2023-05-13T08:50:47.608Z,94956.56
2023-05-13T08:53:57.590Z,94959.88
2023-05-13T08:57:06.935Z,94951.69
2023-05-13T09:00:19.980Z,94961.63
2023-05-13T09:03:30.131Z,94962.59
2023-05-13T09:06:38.601Z,94960.47
2023-05-13T09:09:46.961Z,94965.66
2023-05-13T09:12:56.701Z,94963.81
2023-05-13T09:16:07.444Z,94966.69
2023-05-13T09:19:16.322Z,94974.88
2023-05-13T09:22:24.841Z,94962.63
2023-05-13T09:25:33.681Z,94958.25
2023-05-13T09:28:42.172Z,94964.22
2023-05-13T09:31:54.734Z,94963.25
2023-05-13T09:35:16.805Z,94961.84
2023-05-13T09:38:31.554Z,94958.88
2023-05-13T09:41:39.882Z,94955.50
2023-05-13T09:44:49.798Z,94962.97
2023-05-13T09:47:59.510Z,94962.34
2023-05-13T09:51:07.916Z,94956.91
2023-05-13T09:54:16.188Z,94966.25
2023-05-13T09:57:24.358Z,94963.66
2023-05-13T10:00:34.351Z,94963.19
2023-05-13T10:03:46.033Z,94960.72
2023-05-13T10:06:56.973Z,94958.78
2023-05-13T10:10:09.598Z,94967.91
2023-05-13T10:13:24.559Z,94968.31
2023-05-13T10:16:33.884Z,94961.75
2023-05-13T10:19:44.189Z,94972.22
2023-05-13T10:22:53.616Z,94973.28
2023-05-13T10:26:03.069Z,94966.25
2023-05-13T10:29:12.551Z,94974.88
2023-05-13T10:32:21.307Z,94965.84
2023-05-13T10:35:38.162Z,94975.72
2023-05-13T10:39:14.269Z,94973.88
2023-05-13T10:42:47.935Z,94981.09
2023-05-13T10:46:02.641Z,94979.84
2023-05-13T10:49:16.645Z,94979.19
2023-05-13T10:52:44.002Z,94982.47
2023-05-13T10:55:59.634Z,94978.38
2023-05-13T10:59:08.167Z,94983.47
2023-05-13T11:02:23.353Z,94985.94
2023-05-13T11:05:34.718Z,94987.22
2023-05-13T11:08:46.738Z,94989.28
2023-05-13T11:11:57.135Z,94993.78
2023-05-13T11:15:23.261Z,94985.16
2023-05-13T11:18:32.241Z,94992.34
2023-05-13T11:21:41.353Z,94999.13
2023-05-13T11:25:07.500Z,94993.53
2023-05-13T11:28:19.363Z,94981.41
2023-05-13T11:31:35.289Z,95002.69
2023-05-13T11:34:53.265Z,94992.72
2023-05-13T11:38:03.732Z,94994.84
2023-05-13T11:41:15.129Z,94988.09
2023-05-13T11:44:25.883Z,94994.72
2023-05-13T11:47:34.244Z,94997.81
2023-05-13T11:50:42.684Z,94990.13
2023-05-13T11:53:50.911Z,94988.53
2023-05-13T11:57:00.885Z,94983.31
2023-05-13T12:00:12.763Z,94989.47
2023-05-13T12:03:21.325Z,94990.25
2023-05-13T12:06:31.324Z,94994.88
2023-05-13T12:09:39.808Z,94998.59
2023-05-13T12:12:52.070Z,94995.69
2023-05-13T12:16:00.420Z,95008.06
2023-05-13T12:19:09.173Z,95007.41
2023-05-13T12:22:17.735Z,95012.09
2023-05-13T12:25:45.556Z,95004.41
2023-05-13T12:29:00.255Z,95001.56
2023-05-13T12:32:09.062Z,94995.38
2023-05-13T12:35:17.577Z,94998.88
2023-05-13T12:38:26.703Z,94997.78
2023-05-13T12:41:36.939Z,94994.50
2023-05-13T12:44:48.167Z,95000.59
2023-05-13T12:47:56.934Z,94999.47
2023-05-13T12:51:06.097Z,95002.50
2023-05-13T12:54:14.703Z,94994.66
2023-05-13T12:57:24.367Z,94993.19
2023-05-13T13:00:34.346Z,94993.53
2023-05-13T13:03:42.873Z,94997.31
2023-05-13T13:06:51.422Z,95000.69
2023-05-13T13:09:59.575Z,95011.13
2023-05-13T13:13:07.983Z,95008.47
2023-05-13T13:16:18.044Z,95013.69
2023-05-13T13:19:26.358Z,95011.13
2023-05-13T13:22:36.986Z,95008.06
2023-05-13T13:25:45.512Z,95002.38
2023-05-13T13:28:53.806Z,95005.16
2023-05-13T13:32:04.096Z,94996.44
2023-05-13T13:35:12.597Z,94992.88
2023-05-13T13:38:20.828Z,94994.47
2023-05-13T13:41:29.237Z,94988.63
2023-05-13T13:44:39.666Z,94979.63
2023-05-13T13:47:49.519Z,94984.00
2023-05-13T13:50:58.711Z,94984.50
2023-05-13T13:54:07.840Z,94975.94
2023-05-13T13:57:16.674Z,94977.09
2023-05-13T14:00:25.479Z,94968.31
2023-05-13T14:03:35.115Z,94968.84
2023-05-13T14:06:43.993Z,94972.38
2023-05-13T14:09:52.636Z,94967.97
2023-05-13T14:13:00.952Z,94963.91
2023-05-13T14:16:09.534Z,94966.84
2023-05-13T14:19:19.615Z,94960.41
2023-05-13T14:22:28.125Z,94960.16
2023-05-13T14:25:36.912Z,94960.06
2023-05-13T14:28:45.863Z,94957.56
2023-05-13T14:31:54.581Z,94951.28
2023-05-13T14:35:04.344Z,94951.56
2023-05-13T14:38:12.577Z,94957.53
2023-05-13T14:41:22.632Z,94955.47
2023-05-13T14:44:31.177Z,94949.84
2023-05-13T14:47:39.801Z,94949.00
2023-05-13T14:50:50.950Z,94943.94
2023-05-13T14:53:59.490Z,94945.13
2023-05-13T14:57:08.918Z,94944.19
2023-05-13T15:00:18.704Z,94941.16
2023-05-13T15:03:27.259Z,94932.28
2023-05-13T15:06:38.918Z,94937.34
2023-05-13T15:09:47.341Z,94939.56
2023-05-13T15:12:55.726Z,94935.63
2023-05-13T15:16:05.629Z,94935.38
2023-05-13T15:19:14.262Z,94937.22
2023-05-13T15:22:25.075Z,94937.84
2023-05-13T15:25:33.627Z,94935.84
2023-05-13T15:28:42.211Z,94939.94
2023-05-13T15:31:51.750Z,94939.91
2023-05-13T15:35:00.005Z,94943.53
2023-05-13T15:38:10.792Z,94946.97
2023-05-13T15:41:19.057Z,94944.41
2023-05-13T15:44:27.984Z,94953.19
2023-05-13T15:47:38.842Z,94939.91
2023-05-13T15:50:48.019Z,94940.44
2023-05-13T15:54:00.023Z,94934.22
2023-05-13T15:57:09.194Z,94934.91
2023-05-13T16:00:20.224Z,94930.19
2023-05-13T16:03:29.573Z,94926.34
2023-05-13T16:06:38.809Z,94921.72
2023-05-13T16:09:49.024Z,94930.34
2023-05-13T16:12:58.078Z,94925.75
2023-05-13T16:16:08.022Z,94915.38
2023-05-13T16:19:16.661Z,94925.06
2023-05-13T16:22:32.545Z,94921.94
2023-05-13T16:25:44.430Z,94924.72
2023-05-13T16:28:53.370Z,94910.25
2023-05-13T16:32:01.752Z,94915.69
2023-05-13T16:35:12.893Z,94918.16
2023-05-13T16:38:21.501Z,94909.00
2023-05-13T16:41:31.205Z,94905.97
2023-05-13T16:44:39.804Z,94902.47
2023-05-13T16:47:48.361Z,94905.00
2023-05-13T16:50:56.965Z,94901.47
2023-05-13T16:54:05.560Z,94894.34
2023-05-13T16:57:16.219Z,94895.47
2023-05-13T17:00:24.908Z,94901.34
2023-05-13T17:03:33.419Z,94896.88
2023-05-13T17:06:42.188Z,94902.84
2023-05-13T17:09:51.266Z,94899.72
2023-05-13T17:13:01.353Z,94906.56
2023-05-13T17:16:10.759Z,94901.22
2023-05-13T17:19:19.756Z,94905.34
2023-05-13T17:22:28.343Z,94902.38
2023-05-13T17:25:36.728Z,94903.03
2023-05-13T17:28:46.716Z,94905.22
2023-05-13T17:31:55.634Z,94902.47
2023-05-13T17:35:06.245Z,94906.03
2023-05-13T17:38:14.922Z,94907.53
2023-05-13T17:41:23.188Z,94907.53
2023-05-13T17:44:34.124Z,94897.00
2023-05-13T17:47:42.897Z,94907.75
2023-05-13T17:50:51.926Z,94910.34
2023-05-13T17:54:00.247Z,94907.88
2023-05-13T17:57:10.172Z,94909.72
2023-05-13T18:00:21.226Z,94919.09
2023-05-13T18:03:29.841Z,94906.22
2023-05-13T18:06:38.613Z,94911.50
2023-05-13T18:09:48.628Z,94911.38
2023-05-13T18:12:58.484Z,94909.13
2023-05-13T18:16:10.305Z,94905.16
2023-05-13T18:19:20.004Z,94914.47
2023-05-13T18:22:28.805Z,94912.31
2023-05-13T18:25:45.425Z,94917.03
2023-05-13T18:29:03.383Z,94918.72
2023-05-13T18:32:13.211Z,94915.66
2023-05-13T18:35:23.565Z,94917.53
2023-05-13T18:38:31.816Z,94919.59
2023-05-13T18:41:40.132Z,94921.66
2023-05-13T18:44:48.637Z,94927.00
2023-05-13T18:47:58.362Z,94927.41
2023-05-13T18:51:11.943Z,94930.03
2023-05-13T18:54:20.124Z,94937.69
2023-05-13T18:57:28.471Z,94944.34
2023-05-13T19:00:37.464Z,94947.53
2023-05-13T19:03:47.919Z,94952.72
2023-05-13T19:06:56.230Z,94959.75
2023-05-13T19:10:05.212Z,94963.81
2023-05-13T19:13:14.854Z,94969.75
2023-05-13T19:16:23.330Z,94966.88
2023-05-13T19:19:33.112Z,94967.28
2023-05-13T19:22:41.583Z,94975.09
2023-05-13T19:25:50.270Z,94971.16
2023-05-13T19:28:58.961Z,94972.41
2023-05-13T19:32:07.939Z,94974.03
2023-05-13T19:35:18.015Z,94977.50
2023-05-13T19:38:26.514Z,94982.38
2023-05-13T19:41:35.057Z,94977.69
2023-05-13T19:44:43.442Z,94974.41
2023-05-13T19:47:52.715Z,94980.16
2023-05-13T19:51:02.513Z,94974.44
2023-05-13T19:54:11.781Z,94971.56
2023-05-13T19:57:20.011Z,94971.16
2023-05-13T20:00:28.811Z,94976.88
2023-05-13T20:03:37.098Z,94978.72
2023-05-13T20:06:46.868Z,94973.19
2023-05-13T20:09:55.469Z,94973.59
2023-05-13T20:13:04.709Z,94972.78
2023-05-13T20:16:13.375Z,94969.50
2023-05-13T20:19:22.551Z,94961.09
2023-05-13T20:22:32.359Z,94963.13
2023-05-13T20:25:40.778Z,94965.78
2023-05-13T20:28:51.364Z,94969.84
2023-05-13T20:31:59.494Z,94981.16
2023-05-13T20:35:10.116Z,94974.38
2023-05-13T20:38:21.277Z,94969.41
2023-05-13T20:41:29.676Z,94965.97
2023-05-13T20:44:38.159Z,94965.78
2023-05-13T20:47:46.640Z,94961.06
2023-05-13T20:51:00.312Z,94957.22
2023-05-13T20:54:13.124Z,94957.66
2023-05-13T20:57:21.396Z,94953.94
2023-05-13T21:00:29.659Z,94949.44
2023-05-13T21:03:37.866Z,94940.03
2023-05-13T21:06:46.232Z,94941.66
2023-05-13T21:09:55.681Z,94938.38
2023-05-13T21:13:03.885Z,94937.56
2023-05-13T21:16:12.063Z,94931.00
2023-05-13T21:19:22.286Z,94924.66
2023-05-13T21:22:30.560Z,94923.84
2023-05-13T21:25:40.376Z,94925.88
2023-05-13T21:28:48.491Z,94915.47
2023-05-13T21:31:57.042Z,94915.22
2023-05-13T21:35:06.389Z,94916.47
2023-05-13T21:38:14.643Z,94912.56
2023-05-13T21:41:24.373Z,94900.50
2023-05-13T21:44:32.887Z,94914.00
2023-05-13T21:47:41.378Z,94905.59
2023-05-13T21:50:49.605Z,94908.88
2023-05-13T21:53:57.681Z,94906.63
2023-05-13T21:57:07.882Z,94920.75
2023-05-13T22:00:18.844Z,94913.19
2023-05-13T22:03:27.265Z,94907.44
2023-05-13T22:06:38.375Z,94909.09
2023-05-13T22:09:48.431Z,94907.25
2023-05-13T22:12:59.288Z,94910.91
2023-05-13T22:16:07.746Z,94909.28
2023-05-13T22:19:16.251Z,94913.38
2023-05-13T22:22:24.599Z,94913.78
2023-05-13T22:25:32.807Z,94912.13
2023-05-13T22:28:42.221Z,94902.31
2023-05-13T22:31:50.866Z,94913.38
2023-05-13T22:34:59.187Z,94909.09
2023-05-13T22:38:07.264Z,94916.28
2023-05-13T22:41:15.657Z,94905.81
2023-05-13T22:44:25.631Z,94912.16
2023-05-13T22:47:34.257Z,94926.09
2023-05-13T22:50:42.516Z,94908.25
2023-05-13T22:53:50.611Z,94911.75
2023-05-13T22:56:59.724Z,94918.31
2023-05-13T23:00:12.244Z,94906.03
2023-05-13T23:03:20.804Z,94908.50
2023-05-13T23:06:28.923Z,94907.88
2023-05-13T23:09:37.252Z,94898.22
2023-05-13T23:12:45.364Z,94897.84
2023-05-13T23:15:55.067Z,94893.53
2023-05-13T23:19:03.801Z,94881.03
2023-05-13T23:22:11.930Z,94889.63
2023-05-13T23:25:20.842Z,94884.28
2023-05-13T23:28:28.965Z,94881.19
2023-05-13T23:31:41.271Z,94882.25
2023-05-13T23:34:49.652Z,94880.59
2023-05-13T23:37:58.023Z,94878.97
2023-05-13T23:41:07.156Z,94869.72
2023-05-13T23:44:15.352Z,94866.28
2023-05-13T23:47:25.426Z,94872.81
2023-05-13T23:50:33.980Z,94873.22
2023-05-13T23:53:42.063Z,94866.28
2023-05-13T23:56:50.583Z,94862.16
2023-05-13T23:59:58.806Z,94870.34
